Terminal Aerodrome Forecast
Issued by NWS Green Bay, WI

Home | Current Version | Previous Version | Text Only | Print | Product List | Glossary Off
Versions: 1 2 3 4 5 6 7 8 9 10 11 12 13 14 15 16 17 18 19 20

000
FTUS43 KGRB 181120
TAFGRB
TAF
KGRB 181120Z 1812/1912 04007KT P6SM SKC
     FM181600 08009G16KT P6SM SKC
     FM190000 07006KT P6SM SCT100 BKN250
     FM190800 07005KT P6SM -SHRA BKN045
     FM191000 05006KT P6SM -SHRA OVC022=

USA.gov is the U.S. government's official web portal to all federal, state and local government web resources and services.